Time,TemperatureF,DewpointF,PressureIn,WindDirection,WindDirectionDegrees,WindSpeedMPH,WindSpeedGustMPH,Humidity,HourlyPrecipIn,Conditions,Clouds,dailyrainin,SoftwareType,DateUTC
2013-01-29 00:06:00,35.5,34.0,29.99,West,275,1.0,4.0,94,0.01,,,0.07,weatherlink.com 1.10,2013-01-29 05:06:00,
2013-01-29 00:21:00,35.2,34.0,29.99,WNW,291,1.0,2.0,94,0.01,,,0.07,weatherlink.com 1.10,2013-01-29 05:21:00,
2013-01-29 00:36:00,35.1,34.0,29.99,WNW,285,0.0,1.0,94,0.00,,,0.07,weatherlink.com 1.10,2013-01-29 05:36:00,
2013-01-29 00:51:00,35.1,34.0,29.99,NW,307,0.0,2.0,94,0.00,,,0.07,weatherlink.com 1.10,2013-01-29 05:51:00,
2013-01-29 01:06:00,35.1,34.0,29.99,West,281,0.0,3.0,94,0.00,,,0.07,weatherlink.com 1.10,2013-01-29 06:06:00,
2013-01-29 01:21:00,35.0,34.0,29.99,WNW,284,0.0,2.0,94,0.00,,,0.07,weatherlink.com 1.10,2013-01-29 06:21:00,
2013-01-29 01:36:00,34.9,33.0,29.99,NW,307,1.0,5.0,94,0.00,,,0.07,weatherlink.com 1.10,2013-01-29 06:36:00,
2013-01-29 01:51:00,34.9,33.0,30.00,West,277,1.0,2.0,94,0.00,,,0.07,weatherlink.com 1.10,2013-01-29 06:51:00,
2013-01-29 02:06:00,34.9,33.0,29.99,WNW,295,2.0,3.0,94,0.00,,,0.07,weatherlink.com 1.10,2013-01-29 07:06:00,
2013-01-29 02:21:00,34.9,33.0,30.00,WNW,297,0.0,2.0,94,0.00,,,0.07,weatherlink.com 1.10,2013-01-29 07:21:00,
2013-01-29 02:36:00,34.8,33.0,30.00,WNW,300,1.0,4.0,94,0.00,,,0.07,weatherlink.com 1.10,2013-01-29 07:36:00,
2013-01-29 02:51:00,33.4,32.0,30.01,WNW,283,0.0,2.0,94,0.00,,,0.07,weatherlink.com 1.10,2013-01-29 07:51:00,
2013-01-29 03:06:00,-999.0,-99.9,30.01,North,-999,-999.0,-999.0,-999,0.00,,,0.07,weatherlink.com 1.10,2013-01-29 08:06:00,
2013-01-29 03:21:00,-999.0,-99.9,30.01,North,-999,-999.0,-999.0,-999,0.00,,,0.07,weatherlink.com 1.10,2013-01-29 08:21:00,
2013-01-29 03:36:00,-999.0,-99.9,30.01,North,-999,-999.0,-999.0,-999,0.00,,,0.07,weatherlink.com 1.10,2013-01-29 08:36:00,
2013-01-29 03:51:00,-999.0,-99.9,30.01,North,-999,-999.0,-999.0,-999,0.00,,,0.07,weatherlink.com 1.10,2013-01-29 08:51:00,
2013-01-29 04:07:00,-999.0,-99.9,30.00,North,-999,-999.0,-999.0,-999,0.00,,,0.07,weatherlink.com 1.10,2013-01-29 09:07:00,
2013-01-29 04:22:00,-999.0,-99.9,30.01,North,-999,-999.0,-999.0,-999,0.00,,,0.07,weatherlink.com 1.10,2013-01-29 09:22:00,
2013-01-29 04:37:00,-999.0,-99.9,30.02,North,-999,-999.0,-999.0,-999,0.00,,,0.07,weatherlink.com 1.10,2013-01-29 09:37:00,
2013-01-29 04:52:00,-999.0,-99.9,30.02,North,-999,-999.0,-999.0,-999,0.00,,,0.07,weatherlink.com 1.10,2013-01-29 09:52:00,
2013-01-29 05:07:00,-999.0,-99.9,30.03,North,-999,-999.0,-999.0,-999,0.00,,,0.07,weatherlink.com 1.10,2013-01-29 10:07:00,
2013-01-29 05:22:00,-999.0,-99.9,30.04,North,-999,-999.0,-999.0,-999,0.00,,,0.07,weatherlink.com 1.10,2013-01-29 10:22:00,
2013-01-29 05:37:00,-999.0,-99.9,30.04,North,-999,-999.0,-999.0,-999,0.00,,,0.07,weatherlink.com 1.10,2013-01-29 10:37:00,
2013-01-29 05:52:00,-999.0,-99.9,30.06,North,-999,-999.0,-999.0,-999,0.00,,,0.07,weatherlink.com 1.10,2013-01-29 10:52:00,
2013-01-29 06:07:00,-999.0,-99.9,30.07,North,-999,-999.0,-999.0,-999,0.00,,,0.07,weatherlink.com 1.10,2013-01-29 11:07:00,
2013-01-29 06:22:00,-999.0,-99.9,30.07,North,-999,-999.0,-999.0,-999,0.00,,,0.07,weatherlink.com 1.10,2013-01-29 11:22:00,
2013-01-29 06:37:00,-999.0,-99.9,30.07,North,-999,-999.0,-999.0,-999,0.00,,,0.07,weatherlink.com 1.10,2013-01-29 11:37:00,
2013-01-29 06:52:00,-999.0,-99.9,30.09,North,-999,-999.0,-999.0,-999,0.00,,,0.07,weatherlink.com 1.10,2013-01-29 11:52:00,
2013-01-29 07:07:00,-999.0,-99.9,30.09,North,-999,-999.0,-999.0,-999,0.00,,,0.07,weatherlink.com 1.10,2013-01-29 12:07:00,
2013-01-29 07:22:00,-999.0,-99.9,30.09,North,-999,-999.0,-999.0,-999,0.00,,,0.07,weatherlink.com 1.10,2013-01-29 12:22:00,
2013-01-29 07:38:00,-999.0,-99.9,30.11,North,-999,-999.0,-999.0,-999,0.00,,,0.07,weatherlink.com 1.10,2013-01-29 12:38:00,
2013-01-29 07:53:00,32.1,31.0,30.10,SE,133,0.0,1.0,96,0.00,,,0.07,weatherlink.com 1.10,2013-01-29 12:53:00,
2013-01-29 08:08:00,32.6,31.0,30.12,East,91,0.0,0.0,95,0.00,,,0.07,weatherlink.com 1.10,2013-01-29 13:08:00,
2013-01-29 08:23:00,32.9,32.0,30.13,SSW,208,0.0,0.0,95,0.00,,,0.07,weatherlink.com 1.10,2013-01-29 13:23:00,
2013-01-29 08:38:00,33.4,32.0,30.14,SE,144,1.0,1.0,95,0.00,,,0.07,weatherlink.com 1.10,2013-01-29 13:38:00,
2013-01-29 08:53:00,33.9,33.0,30.14,SW,225,1.0,1.0,95,0.00,,,0.07,weatherlink.com 1.10,2013-01-29 13:53:00,
2013-01-29 09:08:00,34.0,33.0,30.13,SE,131,0.0,2.0,94,0.01,,,0.08,weatherlink.com 1.10,2013-01-29 14:08:00,
2013-01-29 09:23:00,34.4,33.0,30.13,SW,230,0.0,1.0,94,0.01,,,0.08,weatherlink.com 1.10,2013-01-29 14:23:00,
2013-01-29 09:38:00,34.6,33.0,30.14,SE,136,0.0,1.0,93,0.01,,,0.08,weatherlink.com 1.10,2013-01-29 14:38:00,
2013-01-29 09:53:00,35.1,33.0,30.15,NW,321,0.0,1.0,93,0.01,,,0.08,weatherlink.com 1.10,2013-01-29 14:53:00,
2013-01-29 10:08:00,35.4,33.0,30.15,WSW,239,0.0,1.0,92,0.00,,,0.08,weatherlink.com 1.10,2013-01-29 15:08:00,
2013-01-29 10:23:00,35.9,34.0,30.16,SE,127,0.0,1.0,92,0.00,,,0.08,weatherlink.com 1.10,2013-01-29 15:23:00,
2013-01-29 10:38:00,36.3,34.0,30.16,South,183,1.0,2.0,91,0.00,,,0.08,weatherlink.com 1.10,2013-01-29 15:38:00,
2013-01-29 10:53:00,36.8,34.0,30.16,West,271,0.0,2.0,90,0.00,,,0.08,weatherlink.com 1.10,2013-01-29 15:53:00,
2013-01-29 11:08:00,37.1,34.0,30.15,WNW,302,0.0,2.0,89,0.00,,,0.08,weatherlink.com 1.10,2013-01-29 16:08:00,
2013-01-29 11:23:00,37.2,34.0,30.15,SW,225,1.0,2.0,88,0.00,,,0.08,weatherlink.com 1.10,2013-01-29 16:23:00,
2013-01-29 11:38:00,38.1,35.0,30.14,SE,127,1.0,2.0,87,0.00,,,0.08,weatherlink.com 1.10,2013-01-29 16:38:00,
2013-01-29 11:53:00,38.6,35.0,30.14,SE,124,0.0,3.0,86,0.00,,,0.08,weatherlink.com 1.10,2013-01-29 16:53:00,
2013-01-29 12:08:00,39.4,35.0,30.13,ESE,122,2.0,3.0,85,0.00,,,0.08,weatherlink.com 1.10,2013-01-29 17:08:00,
2013-01-29 12:23:00,39.6,36.0,30.13,SE,143,1.0,4.0,85,0.00,,,0.08,weatherlink.com 1.10,2013-01-29 17:23:00,
2013-01-29 12:38:00,39.6,35.0,30.13,SE,126,0.0,2.0,83,0.00,,,0.08,weatherlink.com 1.10,2013-01-29 17:38:00,
2013-01-29 12:53:00,40.9,36.0,30.14,South,174,0.0,2.0,82,0.00,,,0.08,weatherlink.com 1.10,2013-01-29 17:53:00,
2013-01-29 13:08:00,40.4,35.0,30.13,SE,137,0.0,2.0,82,0.00,,,0.08,weatherlink.com 1.10,2013-01-29 18:08:00,
2013-01-29 13:23:00,40.6,36.0,30.13,South,191,0.0,2.0,82,0.00,,,0.08,weatherlink.com 1.10,2013-01-29 18:23:00,
2013-01-29 13:38:00,40.9,36.0,30.13,SSE,156,0.0,2.0,82,0.00,,,0.08,weatherlink.com 1.10,2013-01-29 18:38:00,
2013-01-29 13:53:00,42.3,37.0,30.13,South,188,0.0,2.0,81,0.00,,,0.08,weatherlink.com 1.10,2013-01-29 18:53:00,
2013-01-29 14:08:00,42.2,36.0,30.13,SE,142,1.0,2.0,80,0.00,,,0.08,weatherlink.com 1.10,2013-01-29 19:08:00,
2013-01-29 14:23:00,42.2,36.0,30.13,SSE,153,0.0,3.0,80,0.00,,,0.08,weatherlink.com 1.10,2013-01-29 19:23:00,
2013-01-29 14:38:00,41.2,36.0,30.13,South,174,1.0,2.0,82,0.00,,,0.08,weatherlink.com 1.10,2013-01-29 19:38:00,
2013-01-29 14:53:00,40.4,36.0,30.13,SSE,167,3.0,3.0,84,0.00,,,0.08,weatherlink.com 1.10,2013-01-29 19:53:00,
2013-01-29 15:08:00,40.1,36.0,30.14,SSE,150,1.0,2.0,86,0.00,,,0.08,weatherlink.com 1.10,2013-01-29 20:08:00,
2013-01-29 15:23:00,39.7,36.0,30.14,SE,137,1.0,2.0,86,0.00,,,0.08,weatherlink.com 1.10,2013-01-29 20:23:00,
2013-01-29 15:38:00,39.0,36.0,30.14,ESE,122,0.0,3.0,87,0.00,,,0.08,weatherlink.com 1.10,2013-01-29 20:38:00,
2013-01-29 15:53:00,38.5,35.0,30.15,ESE,115,2.0,2.0,88,0.00,,,0.08,weatherlink.com 1.10,2013-01-29 20:53:00,
2013-01-29 16:08:00,37.9,35.0,30.16,SE,129,1.0,4.0,89,0.00,,,0.08,weatherlink.com 1.10,2013-01-29 21:08:00,
2013-01-29 16:23:00,37.5,35.0,30.15,SE,141,2.0,3.0,90,0.00,,,0.08,weatherlink.com 1.10,2013-01-29 21:23:00,
2013-01-29 16:38:00,37.1,35.0,30.16,SSE,166,2.0,4.0,91,0.00,,,0.08,weatherlink.com 1.10,2013-01-29 21:38:00,
2013-01-29 16:53:00,36.7,34.0,30.15,SE,134,1.0,4.0,91,0.00,,,0.08,weatherlink.com 1.10,2013-01-29 21:53:00,
2013-01-29 17:08:00,36.6,35.0,30.14,ESE,117,3.0,5.0,92,0.00,,,0.08,weatherlink.com 1.10,2013-01-29 22:08:00,
2013-01-29 17:23:00,36.8,35.0,30.15,SE,129,2.0,5.0,92,0.00,,,0.08,weatherlink.com 1.10,2013-01-29 22:23:00,
2013-01-29 17:38:00,36.9,35.0,30.16,SE,139,3.0,4.0,92,0.00,,,0.08,weatherlink.com 1.10,2013-01-29 22:38:00,
2013-01-29 17:53:00,36.9,35.0,30.17,SE,129,3.0,6.0,92,0.00,,,0.08,weatherlink.com 1.10,2013-01-29 22:53:00,
2013-01-29 18:08:00,36.9,35.0,30.18,SE,143,0.0,3.0,92,0.00,,,0.08,weatherlink.com 1.10,2013-01-29 23:08:00,
2013-01-29 18:24:00,37.1,35.0,30.19,SSE,163,0.0,1.0,92,0.00,,,0.08,weatherlink.com 1.10,2013-01-29 23:24:00,
2013-01-29 18:38:00,37.2,35.0,30.18,SSE,150,0.0,1.0,92,0.00,,,0.08,weatherlink.com 1.10,2013-01-29 23:38:00,
2013-01-29 18:53:00,37.7,36.0,30.17,SSE,159,1.0,2.0,93,0.00,,,0.08,weatherlink.com 1.10,2013-01-29 23:53:00,
2013-01-29 19:08:00,38.0,36.0,30.14,SSE,149,1.0,4.0,93,0.00,,,0.08,weatherlink.com 1.10,2013-01-30 00:08:00,
2013-01-29 19:24:00,38.3,37.0,30.15,SSE,149,1.0,4.0,93,0.00,,,0.08,weatherlink.com 1.10,2013-01-30 00:24:00,
2013-01-29 19:39:00,38.4,37.0,30.14,SE,144,1.0,3.0,93,0.00,,,0.00,weatherlink.com 1.10,2013-01-30 00:39:00,
2013-01-29 19:54:00,38.5,37.0,30.15,ESE,117,1.0,3.0,93,0.00,,,0.00,weatherlink.com 1.10,2013-01-30 00:54:00,
2013-01-29 20:09:00,38.6,37.0,30.15,SE,139,0.0,3.0,94,0.00,,,0.00,weatherlink.com 1.10,2013-01-30 01:09:00,
2013-01-29 20:24:00,38.5,37.0,30.15,SE,129,1.0,2.0,94,0.00,,,0.00,weatherlink.com 1.10,2013-01-30 01:24:00,
2013-01-29 20:39:00,38.6,37.0,30.15,SE,124,0.0,1.0,94,0.00,,,0.00,weatherlink.com 1.10,2013-01-30 01:39:00,
2013-01-29 20:54:00,38.7,37.0,30.16,SE,131,0.0,1.0,94,0.00,,,0.00,weatherlink.com 1.10,2013-01-30 01:54:00,
2013-01-29 21:09:00,39.1,38.0,30.14,ESE,113,0.0,4.0,94,0.00,,,0.00,weatherlink.com 1.10,2013-01-30 02:09:00,
2013-01-29 21:24:00,38.3,37.0,30.15,SE,124,1.0,2.0,93,0.00,,,0.00,weatherlink.com 1.10,2013-01-30 02:24:00,
2013-01-29 21:39:00,38.0,37.0,30.15,ESE,117,1.0,2.0,94,0.00,,,0.00,weatherlink.com 1.10,2013-01-30 02:39:00,
2013-01-29 21:54:00,37.9,36.0,30.14,ESE,121,1.0,2.0,94,0.00,,,0.00,weatherlink.com 1.10,2013-01-30 02:54:00,
2013-01-29 22:09:00,37.7,36.0,30.14,East,100,1.0,2.0,94,0.00,,,0.00,weatherlink.com 1.10,2013-01-30 03:09:00,
2013-01-29 22:24:00,37.9,37.0,30.13,ESE,117,1.0,1.0,95,0.00,,,0.00,weatherlink.com 1.10,2013-01-30 03:24:00,
2013-01-29 22:39:00,38.3,37.0,30.13,ESE,117,1.0,2.0,95,0.00,,,0.00,weatherlink.com 1.10,2013-01-30 03:39:00,
2013-01-29 22:54:00,39.1,38.0,30.12,SE,126,3.0,3.0,95,0.00,,,0.00,weatherlink.com 1.10,2013-01-30 03:54:00,
2013-01-29 23:09:00,39.6,38.0,30.12,ESE,122,2.0,4.0,95,0.00,,,0.00,weatherlink.com 1.10,2013-01-30 04:09:00,
2013-01-29 23:29:00,40.1,39.0,30.13,SE,124,1.0,3.0,96,0.00,,,0.00,weatherlink.com 1.10,2013-01-30 04:29:00,
2013-01-29 23:39:00,40.2,39.0,30.13,ESE,119,0.0,3.0,96,0.00,,,0.00,weatherlink.com 1.10,2013-01-30 04:39:00,
2013-01-29 23:54:00,40.2,39.0,30.14,ESE,115,1.0,2.0,95,0.00,,,0.00,weatherlink.com 1.10,2013-01-30 04:54:00,